Aérodrome :
LOGIN :

S'inscrire | Disclaimer

   EN    FR    IT 

 










Légende :    VFR   VFR Marginal   IFR   IFR Intensif   IFR Très Intensif
Visi : 
Plafond : 
>= 8 km
>= 3000ft
5 à 8 km
1000 à 3000 ft
1500m à 5 km
500 à 1000 ft
800 à 1500m
200 à 500 ft
< 800m
< 200 ft
Symboles :   Orages  Brouillard  Fortes neiges  Fortes précipitations  Vent > 20 kt
SIGMETs :   Divers  Orages  Givrage  Turbulence  Onde Orograph.  Cendres Volcan.







- Altitude de l'aérodrome : 2945 ft
- Code IATA : RGS


LEBG - Burgos

DERNIER METAR :
  • 231600Z 04010KT 9000 NSC 14/05 Q1014

METARs EXPIRÉS :
  • 231530Z 04009KT 010V070 9000 NSC 15/05 Q1014
  • 231500Z 05009KT 9000 NSC 15/06 Q1014
  • 231430Z 04009KT 340V060 9000 NSC 16/06 Q1014
  • 231400Z 36009KT 330V030 9000 NSC 16/07 Q1014
  • 231330Z 03005KT 340V070 9000 NSC 16/05 Q1015
  • 231300Z 02008KT 9000 NSC 16/06 Q1015

TAF TAF LEBG
Valide du 23 à 15h jusqu'au 24 à 00h UTC


231400Z 2315/2324 05012KT 8000 NSC
Pas de NOTAMs connus pour ce terrain.
1 SIGMET publié pour la FIR Madrid (LECM) :
 
Orages noyés dans la masse
LECM SIGMET 7 VALID 231500/231700 LEVA
LECM MADRID FIR/UIR EMBD TS OBS AT 1446Z WI N3720 W00530 - N3610 W00530 - N3620 W00220 - N3930 W00130 - N3930 W00350 TOP FL320 STNR NC=



MET'MAP, la Météo Aéronautique d'un coup d'oeil ! - Copyright ORBIFLY Décembre 2007 - Disclaimer

ORBIFLY MET'MAP TEAM :

Programmation & Développement : Alexandra Zaïnal
Conception & Développement : Baudouin d'Aumeries
Co-Programmation & Développement : Marc-Olivier Méhu
Soutien technique & logistique : Manuel Goepfert

Contact : metmap@orbifly.com




SOURCES & CREDITS :

   NOAA